createdAt,value
2017-05-30T00:00:47.682Z,52.74
2017-05-30T00:01:49.306Z,53.22
2017-05-30T00:02:50.977Z,53.22
2017-05-30T00:03:52.619Z,53.71
2017-05-30T00:04:54.243Z,53.81
2017-05-30T00:05:55.935Z,53.32
2017-05-30T00:06:57.601Z,53.42
2017-05-30T00:07:59.278Z,53.32
2017-05-30T00:09:00.923Z,52.74
2017-05-30T00:10:02.556Z,53.71
2017-05-30T00:11:04.220Z,53.42
2017-05-30T00:12:05.886Z,53.81
2017-05-30T00:13:07.566Z,53.81
2017-05-30T00:14:09.253Z,53.22
2017-05-30T00:15:10.922Z,53.71
2017-05-30T00:16:12.584Z,53.13
2017-05-30T00:17:14.230Z,53.22
2017-05-30T00:18:15.917Z,53.71
2017-05-30T00:19:57.086Z,53.91
2017-05-30T00:21:38.269Z,53.13
2017-05-30T00:22:39.905Z,53.22
2017-05-30T00:23:41.603Z,53.10
2017-05-30T00:24:43.202Z,53.81
2017-05-30T00:25:44.892Z,53.71
2017-05-30T00:26:46.675Z,53.71
2017-05-30T00:27:48.324Z,54.10
2017-05-30T00:28:49.977Z,53.52
2017-05-30T00:29:51.611Z,54.00
2017-05-30T00:30:53.327Z,54.17
2017-05-30T00:31:55.027Z,53.91
2017-05-30T00:32:56.640Z,53.59
2017-05-30T00:33:58.335Z,53.10
2017-05-30T00:34:59.980Z,52.72
2017-05-30T00:36:01.623Z,53.30
2017-05-30T00:37:03.285Z,53.49
2017-05-30T00:38:04.946Z,52.91
2017-05-30T00:39:06.612Z,52.72
2017-05-30T00:40:08.258Z,52.91
2017-05-30T00:41:09.996Z,52.42
2017-05-30T00:42:11.760Z,52.42
2017-05-30T00:43:13.457Z,52.03
2017-05-30T00:44:15.187Z,52.23
2017-05-30T00:45:16.879Z,52.81
2017-05-30T00:46:18.607Z,52.62
2017-05-30T00:47:20.381Z,52.72
2017-05-30T00:48:22.040Z,52.62
2017-05-30T00:49:23.761Z,52.13
2017-05-30T00:50:25.466Z,52.81
2017-05-30T00:51:27.140Z,52.81
2017-05-30T00:52:28.905Z,52.81
2017-05-30T00:53:30.564Z,52.62
2017-05-30T00:54:32.291Z,52.52
2017-05-30T00:55:34.214Z,53.10
2017-05-30T00:56:35.898Z,53.10
2017-05-30T00:57:37.624Z,52.33
2017-05-30T00:58:39.340Z,52.72
2017-05-30T00:59:40.983Z,52.72
2017-05-30T01:00:42.743Z,52.62
2017-05-30T01:01:44.440Z,52.81
2017-05-30T01:02:46.166Z,52.81
2017-05-30T01:04:27.399Z,53.20
2017-05-30T01:06:08.617Z,52.42
2017-05-30T01:07:10.347Z,52.62
2017-05-30T01:08:12.090Z,52.23
2017-05-30T01:09:13.855Z,52.23
2017-05-30T01:10:15.535Z,52.81
2017-05-30T01:11:17.290Z,52.72
2017-05-30T01:12:18.970Z,52.33
2017-05-30T01:13:20.610Z,52.52
2017-05-30T01:14:22.268Z,52.88
2017-05-30T01:15:24.006Z,52.72
2017-05-30T01:16:25.739Z,52.52
2017-05-30T01:17:27.466Z,52.69
2017-05-30T01:18:29.249Z,52.50
2017-05-30T01:19:30.923Z,52.81
2017-05-30T01:20:32.653Z,52.50
2017-05-30T01:21:34.361Z,53.37
2017-05-30T01:22:36.080Z,52.69
2017-05-30T01:23:37.828Z,52.69
2017-05-30T01:24:39.535Z,52.88
2017-05-30T01:25:41.225Z,53.00
2017-05-30T01:26:42.871Z,52.50
2017-05-30T01:27:45.401Z,52.98
2017-05-30T01:28:46.360Z,52.78
2017-05-30T01:29:48.074Z,52.78
2017-05-30T01:30:49.755Z,52.88
2017-05-30T01:31:51.408Z,52.98
2017-05-30T01:32:53.109Z,53.08
2017-05-30T01:33:54.798Z,53.08
2017-05-30T01:34:56.458Z,53.17
2017-05-30T01:35:58.151Z,53.08
2017-05-30T01:36:59.855Z,53.66
2017-05-30T01:38:01.591Z,53.08
2017-05-30T01:39:03.309Z,53.56
2017-05-30T01:40:04.994Z,53.37
2017-05-30T01:41:06.642Z,53.75
2017-05-30T01:42:08.290Z,53.66
2017-05-30T01:43:09.959Z,53.37
2017-05-30T01:44:11.683Z,53.47
2017-05-30T01:45:13.323Z,54.05
2017-05-30T01:46:14.968Z,54.24
2017-05-30T01:47:16.642Z,53.75
2017-05-30T01:48:18.327Z,53.95
2017-05-30T01:49:19.959Z,54.24
2017-05-30T01:50:21.597Z,54.14
2017-05-30T01:51:23.248Z,54.44
2017-05-30T01:52:24.943Z,53.95
2017-05-30T01:53:26.677Z,54.24
2017-05-30T01:54:28.374Z,54.34
2017-05-30T01:55:30.327Z,54.44
2017-05-30T01:56:32.008Z,54.63
2017-05-30T01:57:33.706Z,54.34
2017-05-30T01:58:35.416Z,55.21
2017-05-30T01:59:37.061Z,55.02
2017-05-30T02:00:38.730Z,54.44
2017-05-30T02:01:40.360Z,54.34
2017-05-30T02:02:42.029Z,54.72
2017-05-30T02:03:43.710Z,54.72
2017-05-30T02:04:45.309Z,54.72
2017-05-30T02:05:47.036Z,55.50
2017-05-30T02:06:48.710Z,55.11
2017-05-30T02:07:50.372Z,55.41
2017-05-30T02:08:52.068Z,55.28
2017-05-30T02:09:53.994Z,55.02
2017-05-30T02:10:55.628Z,55.69
2017-05-30T02:11:57.269Z,55.41
2017-05-30T02:12:58.944Z,55.69
2017-05-30T02:14:00.627Z,55.50
2017-05-30T02:15:41.791Z,55.28
2017-05-30T02:17:22.994Z,55.69
2017-05-30T02:19:04.151Z,55.99
2017-05-30T02:20:05.770Z,55.69
2017-05-30T02:21:07.678Z,55.99
2017-05-30T02:22:09.342Z,55.87
2017-05-30T02:23:10.984Z,55.77
2017-05-30T02:24:12.678Z,55.96
2017-05-30T02:25:14.330Z,56.25
2017-05-30T02:26:16.192Z,56.35
2017-05-30T02:27:17.877Z,56.05
2017-05-30T02:28:19.531Z,56.25
2017-05-30T02:29:21.258Z,56.25
2017-05-30T02:30:22.931Z,55.96
2017-05-30T02:31:24.574Z,56.05
2017-05-30T02:32:26.320Z,56.05
2017-05-30T02:33:27.954Z,56.05
2017-05-30T02:34:29.560Z,55.67
2017-05-30T02:35:31.216Z,55.67
2017-05-30T02:36:32.922Z,56.15
2017-05-30T02:37:34.607Z,56.25
2017-05-30T02:38:36.315Z,56.35
2017-05-30T02:39:37.966Z,56.05
2017-05-30T02:40:39.639Z,56.05
2017-05-30T02:41:41.307Z,57.12
2017-05-30T02:42:43.063Z,57.12
2017-05-30T02:43:44.702Z,57.54
2017-05-30T02:44:46.347Z,56.74
2017-05-30T02:45:48.007Z,57.32
2017-05-30T02:46:49.666Z,57.51
2017-05-30T02:47:51.422Z,57.51
2017-05-30T02:48:53.092Z,57.61
2017-05-30T02:49:54.729Z,57.42
2017-05-30T02:50:56.355Z,57.42
2017-05-30T02:51:58.082Z,57.61
2017-05-30T02:53:39.803Z,57.12
2017-05-30T02:54:41.497Z,57.51
2017-05-30T02:55:43.171Z,57.42
2017-05-30T02:56:44.850Z,57.80
2017-05-30T02:57:46.504Z,57.70
2017-05-30T02:58:48.235Z,57.90
2017-05-30T02:59:49.912Z,58.00
2017-05-30T03:00:52.126Z,57.51
2017-05-30T03:01:53.863Z,57.12
2017-05-30T03:02:55.489Z,57.22
2017-05-30T03:03:57.124Z,57.51
2017-05-30T03:04:58.788Z,56.83
2017-05-30T03:06:00.442Z,57.12
2017-05-30T03:07:02.131Z,57.32
2017-05-30T03:08:03.804Z,57.51
2017-05-30T03:09:05.567Z,57.12
2017-05-30T03:10:07.325Z,57.90
2017-05-30T03:11:08.973Z,57.42
2017-05-30T03:12:10.639Z,57.70
2017-05-30T03:13:12.570Z,57.03
2017-05-30T03:14:14.256Z,57.42
2017-05-30T03:15:15.976Z,57.42
2017-05-30T03:16:17.635Z,57.42
2017-05-30T03:17:19.302Z,57.03
2017-05-30T03:18:20.910Z,57.51
2017-05-30T03:19:22.579Z,57.51
2017-05-30T03:20:24.379Z,57.42
2017-05-30T03:21:26.058Z,57.03
2017-05-30T03:22:27.732Z,57.03
2017-05-30T03:23:29.366Z,57.42
2017-05-30T03:24:32.119Z,56.83
2017-05-30T03:25:33.764Z,56.45
2017-05-30T03:27:14.941Z,55.96
2017-05-30T03:28:56.107Z,56.15
2017-05-30T03:30:37.351Z,56.83
2017-05-30T03:31:38.960Z,57.22
2017-05-30T03:32:40.592Z,58.09
2017-05-30T03:33:42.314Z,56.93
2017-05-30T03:34:43.938Z,56.25
2017-05-30T03:35:45.589Z,57.32
2017-05-30T03:36:47.262Z,56.25
2017-05-30T03:37:49.751Z,57.12
2017-05-30T03:38:51.500Z,56.54
2017-05-30T03:39:53.878Z,57.22
2017-05-30T03:40:55.571Z,57.58
2017-05-30T03:41:57.265Z,56.54
2017-05-30T03:42:58.986Z,57.12
2017-05-30T03:44:00.753Z,57.42
2017-05-30T03:45:03.541Z,57.09
2017-05-30T03:46:05.645Z,56.41
2017-05-30T03:47:08.429Z,57.09
2017-05-30T03:48:10.190Z,57.39
2017-05-30T03:49:11.962Z,56.23
2017-05-30T03:50:13.678Z,56.61
2017-05-30T03:51:15.364Z,56.03
2017-05-30T03:52:17.106Z,55.83
2017-05-30T03:53:18.816Z,56.13
2017-05-30T03:54:20.540Z,56.41
2017-05-30T03:55:22.252Z,56.61
2017-05-30T03:56:23.925Z,56.51
2017-05-30T03:57:25.662Z,57.29
2017-05-30T03:58:28.345Z,56.61
2017-05-30T03:59:31.069Z,56.51
2017-05-30T04:00:33.631Z,56.23
2017-05-30T04:01:36.172Z,56.13
2017-05-30T04:02:39.009Z,56.32
2017-05-30T04:03:40.662Z,56.03
2017-05-30T04:04:42.323Z,56.32
2017-05-30T04:05:44.023Z,55.93
2017-05-30T04:06:45.677Z,55.54
2017-05-30T04:07:47.352Z,56.23
2017-05-30T04:08:49.102Z,55.93
2017-05-30T04:09:50.755Z,55.64
2017-05-30T04:10:52.392Z,56.23
2017-05-30T04:11:54.129Z,56.41
2017-05-30T04:12:55.863Z,56.23
2017-05-30T04:13:58.691Z,55.83
2017-05-30T04:15:00.332Z,55.44
2017-05-30T04:16:01.996Z,56.32
2017-05-30T04:17:03.711Z,56.32
2017-05-30T04:18:05.376Z,55.83
2017-05-30T04:19:07.159Z,55.83
2017-05-30T04:20:08.844Z,56.23
2017-05-30T04:21:10.564Z,55.64
2017-05-30T04:22:12.288Z,56.13
2017-05-30T04:23:13.960Z,56.81
2017-05-30T04:24:15.672Z,56.13
2017-05-30T04:25:17.339Z,56.90
2017-05-30T04:26:19.161Z,56.41
2017-05-30T04:27:21.656Z,55.93
2017-05-30T04:28:23.329Z,56.61
2017-05-30T04:29:25.001Z,56.23
2017-05-30T04:30:26.694Z,55.93
2017-05-30T04:31:28.345Z,56.03
2017-05-30T04:32:30.087Z,55.93
2017-05-30T04:33:31.776Z,56.32
2017-05-30T04:34:33.413Z,55.83
2017-05-30T04:35:35.058Z,57.29
2017-05-30T04:36:36.730Z,57.00
2017-05-30T04:37:38.383Z,56.32
2017-05-30T04:39:19.542Z,56.61
2017-05-30T04:41:00.659Z,56.51
2017-05-30T04:42:02.371Z,56.13
2017-05-30T04:43:04.029Z,56.03
2017-05-30T04:44:05.657Z,56.32
2017-05-30T04:45:07.321Z,56.41
2017-05-30T04:46:09.040Z,55.83
2017-05-30T04:47:10.742Z,56.71
2017-05-30T04:48:12.385Z,56.13
2017-05-30T04:49:14.040Z,55.93
2017-05-30T04:50:15.693Z,55.74
2017-05-30T04:51:17.432Z,55.64
2017-05-30T04:52:19.077Z,55.74
2017-05-30T04:53:20.731Z,56.23
2017-05-30T04:54:22.402Z,55.64
2017-05-30T04:55:24.041Z,56.23
2017-05-30T04:56:25.708Z,56.23
2017-05-30T04:57:27.337Z,56.23
2017-05-30T04:58:29.043Z,55.26
2017-05-30T04:59:30.709Z,55.93
2017-05-30T05:00:32.363Z,55.83
2017-05-30T05:01:34.064Z,55.83
2017-05-30T05:02:35.721Z,55.54
2017-05-30T05:03:37.392Z,55.64
2017-05-30T05:04:39.068Z,55.83
2017-05-30T05:05:40.747Z,55.54
2017-05-30T05:06:42.416Z,55.35
2017-05-30T05:07:44.098Z,55.93
2017-05-30T05:08:45.801Z,55.44
2017-05-30T05:09:47.428Z,55.44
2017-05-30T05:10:49.076Z,55.44
2017-05-30T05:11:50.716Z,55.38
2017-05-30T05:12:52.373Z,55.16
2017-05-30T05:13:54.062Z,54.41
2017-05-30T05:14:55.710Z,54.48
2017-05-30T05:15:57.449Z,55.28
2017-05-30T05:16:59.763Z,54.38
2017-05-30T05:18:01.441Z,54.50
2017-05-30T05:19:03.187Z,54.80
2017-05-30T05:20:04.842Z,55.57
2017-05-30T05:21:06.507Z,55.38
2017-05-30T05:22:08.208Z,54.11
2017-05-30T05:23:09.812Z,54.21
2017-05-30T05:24:11.464Z,54.60
2017-05-30T05:25:13.160Z,54.70
2017-05-30T05:26:14.785Z,53.73
2017-05-30T05:27:18.069Z,54.41
2017-05-30T05:28:19.714Z,53.73
2017-05-30T05:29:21.425Z,53.83
2017-05-30T05:30:23.106Z,53.92
2017-05-30T05:31:24.706Z,53.73
2017-05-30T05:32:26.405Z,53.15
2017-05-30T05:33:28.062Z,53.27
2017-05-30T05:34:29.770Z,52.69
2017-05-30T05:35:31.392Z,53.08
2017-05-30T05:36:33.047Z,52.69
2017-05-30T05:37:34.689Z,52.88
2017-05-30T05:38:36.361Z,52.59
2017-05-30T05:39:38.102Z,52.69
2017-05-30T05:40:39.763Z,52.11
2017-05-30T05:41:41.406Z,52.30
2017-05-30T05:42:43.728Z,52.30
2017-05-30T05:43:45.386Z,52.40
2017-05-30T05:44:47.095Z,51.93
2017-05-30T05:45:48.805Z,52.11
2017-05-30T05:46:50.578Z,51.91
2017-05-30T05:47:52.287Z,51.62
2017-05-30T05:48:53.949Z,51.91
2017-05-30T05:50:35.234Z,51.62
2017-05-30T05:52:16.486Z,52.11
2017-05-30T05:53:18.144Z,51.93
2017-05-30T05:54:19.819Z,52.20
2017-05-30T05:55:21.470Z,51.23
2017-05-30T05:56:23.214Z,51.26
2017-05-30T05:57:24.926Z,51.55
2017-05-30T05:58:26.642Z,51.45
2017-05-30T05:59:28.353Z,50.87
2017-05-30T06:00:30.064Z,51.35
2017-05-30T06:01:31.770Z,50.87
2017-05-30T06:02:33.487Z,50.87
2017-05-30T06:03:35.174Z,50.48
2017-05-30T06:04:36.841Z,50.19
2017-05-30T06:05:38.456Z,50.09
2017-05-30T06:06:40.129Z,49.92
2017-05-30T06:07:41.862Z,50.19
2017-05-30T06:08:43.562Z,50.51
2017-05-30T06:09:45.254Z,50.12
2017-05-30T06:10:46.917Z,50.02
2017-05-30T06:11:48.699Z,49.82
2017-05-30T06:12:50.379Z,49.92
2017-05-30T06:13:52.053Z,49.82
2017-05-30T06:14:53.717Z,49.73
2017-05-30T06:15:55.353Z,49.73
2017-05-30T06:16:57.047Z,49.44
2017-05-30T06:17:58.738Z,49.24
2017-05-30T06:19:00.440Z,49.15
2017-05-30T06:20:02.090Z,49.15
2017-05-30T06:21:04.943Z,48.85
2017-05-30T06:22:06.763Z,48.85
2017-05-30T06:23:08.468Z,49.24
2017-05-30T06:24:10.207Z,49.63
2017-05-30T06:25:11.900Z,49.07
2017-05-30T06:26:13.594Z,48.58
2017-05-30T06:27:15.333Z,48.88
2017-05-30T06:28:16.981Z,48.68
2017-05-30T06:29:18.707Z,48.97
2017-05-30T06:30:20.384Z,48.88
2017-05-30T06:31:22.035Z,48.39
2017-05-30T06:32:23.724Z,48.68
2017-05-30T06:33:25.399Z,48.78
2017-05-30T06:34:27.101Z,48.97
2017-05-30T06:35:28.992Z,48.00
2017-05-30T06:36:30.712Z,47.81
2017-05-30T06:37:32.438Z,47.71
2017-05-30T06:38:34.145Z,47.32
2017-05-30T06:39:35.823Z,47.42
2017-05-30T06:40:37.586Z,47.13
2017-05-30T06:41:39.328Z,47.03
2017-05-30T06:42:41.151Z,47.05
2017-05-30T06:43:42.898Z,46.77
2017-05-30T06:44:44.585Z,46.67
2017-05-30T06:45:46.280Z,46.28
2017-05-30T06:46:47.990Z,46.18
2017-05-30T06:47:49.742Z,46.28
2017-05-30T06:48:51.483Z,45.98
2017-05-30T06:49:53.163Z,46.28
2017-05-30T06:50:54.867Z,46.08
2017-05-30T06:51:56.604Z,46.96
2017-05-30T06:52:58.375Z,47.08
2017-05-30T06:54:00.316Z,47.74
2017-05-30T06:55:02.037Z,47.83
2017-05-30T06:56:03.711Z,47.44
2017-05-30T06:57:06.411Z,47.44
2017-05-30T06:58:08.171Z,47.93
2017-05-30T06:59:09.826Z,48.03
2017-05-30T07:00:11.508Z,48.22
2017-05-30T07:01:52.754Z,48.71
2017-05-30T07:03:34.382Z,48.80
2017-05-30T07:04:36.072Z,48.61
2017-05-30T07:05:37.803Z,48.61
2017-05-30T07:06:39.555Z,48.93
2017-05-30T07:07:41.233Z,48.80
2017-05-30T07:08:43.044Z,49.00
2017-05-30T07:09:44.819Z,48.93
2017-05-30T07:10:46.608Z,49.12
2017-05-30T07:11:48.377Z,48.73
2017-05-30T07:12:50.113Z,48.71
2017-05-30T07:13:51.949Z,48.93
2017-05-30T07:14:53.603Z,48.90
2017-05-30T07:15:55.296Z,48.93
2017-05-30T07:16:57.000Z,48.93
2017-05-30T07:17:58.666Z,48.73
2017-05-30T07:19:00.435Z,48.73
2017-05-30T07:20:02.143Z,49.02
2017-05-30T07:21:03.826Z,48.54
2017-05-30T07:22:05.476Z,48.73
2017-05-30T07:23:07.223Z,48.61
2017-05-30T07:24:09.126Z,48.63
2017-05-30T07:25:10.842Z,48.83
2017-05-30T07:26:13.358Z,48.93
2017-05-30T07:27:15.031Z,48.44
2017-05-30T07:28:16.691Z,48.41
2017-05-30T07:29:18.906Z,48.83
2017-05-30T07:30:20.871Z,48.44
2017-05-30T07:31:24.661Z,48.63
2017-05-30T07:32:26.334Z,48.34
2017-05-30T07:33:28.032Z,48.34
2017-05-30T07:34:29.727Z,48.54
2017-05-30T07:35:31.523Z,48.05
2017-05-30T07:36:33.231Z,48.34
2017-05-30T07:37:35.966Z,48.34
2017-05-30T07:38:37.600Z,48.05
2017-05-30T07:39:39.290Z,48.44
2017-05-30T07:40:40.927Z,47.96
2017-05-30T07:41:42.628Z,48.05
2017-05-30T07:42:44.292Z,47.96
2017-05-30T07:43:45.923Z,48.25
2017-05-30T07:44:47.601Z,48.05
2017-05-30T07:45:49.311Z,48.05
2017-05-30T07:46:51.048Z,47.96
2017-05-30T07:47:52.745Z,47.86
2017-05-30T07:48:54.448Z,48.27
2017-05-30T07:49:56.152Z,47.98
2017-05-30T07:50:57.846Z,47.47
2017-05-30T07:51:59.590Z,47.78
2017-05-30T07:53:01.243Z,47.59
2017-05-30T07:54:02.908Z,47.39
2017-05-30T07:55:04.678Z,47.30
2017-05-30T07:56:06.340Z,47.30
2017-05-30T07:57:08.088Z,47.10
2017-05-30T07:58:09.782Z,47.30
2017-05-30T07:59:11.522Z,47.59
2017-05-30T08:00:13.241Z,47.59
2017-05-30T08:01:14.893Z,47.20
2017-05-30T08:02:16.580Z,47.20
2017-05-30T08:03:18.269Z,47.39
2017-05-30T08:04:20.013Z,47.52
2017-05-30T08:05:21.710Z,47.13
2017-05-30T08:06:23.400Z,47.22
2017-05-30T08:07:25.172Z,46.93
2017-05-30T08:08:26.813Z,47.13
2017-05-30T08:09:28.444Z,46.64
2017-05-30T08:10:30.069Z,46.73
2017-05-30T08:11:31.768Z,46.15
2017-05-30T08:12:33.438Z,46.34
2017-05-30T08:14:14.702Z,47.13
2017-05-30T08:15:55.885Z,46.27
2017-05-30T08:16:57.569Z,46.76
2017-05-30T08:17:59.276Z,46.08
2017-05-30T08:19:00.967Z,46.37
2017-05-30T08:20:02.698Z,45.78
2017-05-30T08:21:04.415Z,45.59
2017-05-30T08:22:06.092Z,46.17
2017-05-30T08:23:07.865Z,45.78
2017-05-30T08:24:09.579Z,45.59
2017-05-30T08:25:11.381Z,45.88
2017-05-30T08:26:13.120Z,45.59
2017-05-30T08:27:14.828Z,45.71
2017-05-30T08:28:16.500Z,45.68
2017-05-30T08:29:18.196Z,45.81
2017-05-30T08:30:19.964Z,45.81
2017-05-30T08:31:21.665Z,46.10
2017-05-30T08:32:23.406Z,45.90
2017-05-30T08:33:25.114Z,45.03
2017-05-30T08:34:26.791Z,45.03
2017-05-30T08:35:28.518Z,44.54
2017-05-30T08:36:31.059Z,44.64
2017-05-30T08:37:32.842Z,45.05
2017-05-30T08:38:34.552Z,44.27
2017-05-30T08:39:36.289Z,45.44
2017-05-30T08:40:38.008Z,45.54
2017-05-30T08:41:39.744Z,46.80
2017-05-30T08:42:41.509Z,45.44
2017-05-30T08:43:43.254Z,44.95
2017-05-30T08:44:45.018Z,44.37
2017-05-30T08:45:46.668Z,44.95
2017-05-30T08:46:48.354Z,44.66
2017-05-30T08:47:50.184Z,45.64
2017-05-30T08:48:51.946Z,44.17
2017-05-30T08:49:53.658Z,43.78
2017-05-30T08:50:55.331Z,44.27
2017-05-30T08:51:57.062Z,43.88
2017-05-30T08:52:58.881Z,45.85
2017-05-30T08:54:00.577Z,44.58
2017-05-30T08:55:02.535Z,43.32
2017-05-30T08:56:04.233Z,43.80
2017-05-30T08:57:05.897Z,45.85
2017-05-30T08:58:07.692Z,43.99
2017-05-30T08:59:09.401Z,43.61
2017-05-30T09:00:11.165Z,43.61
2017-05-30T09:01:12.847Z,43.71
2017-05-30T09:02:14.528Z,43.71
2017-05-30T09:03:16.150Z,42.44
2017-05-30T09:04:18.012Z,43.53
2017-05-30T09:05:19.746Z,43.51
2017-05-30T09:06:21.452Z,42.75
2017-05-30T09:07:23.221Z,43.80
2017-05-30T09:08:24.877Z,44.02
2017-05-30T09:09:26.630Z,43.14
2017-05-30T09:10:28.326Z,42.75
2017-05-30T09:11:30.043Z,43.53
2017-05-30T09:12:32.459Z,43.51
2017-05-30T09:13:34.127Z,42.75
2017-05-30T09:14:35.867Z,43.43
2017-05-30T09:15:37.533Z,43.63
2017-05-30T09:16:39.208Z,42.16
2017-05-30T09:17:40.839Z,42.26
2017-05-30T09:18:42.497Z,44.21
2017-05-30T09:19:44.185Z,43.14
2017-05-30T09:20:45.833Z,42.85
2017-05-30T09:21:47.522Z,42.36
2017-05-30T09:22:49.196Z,43.14
2017-05-30T09:23:50.925Z,41.67
2017-05-30T09:25:33.537Z,43.24
2017-05-30T09:26:35.235Z,43.73
2017-05-30T09:27:36.938Z,43.53
2017-05-30T09:28:38.563Z,42.75
2017-05-30T09:29:40.181Z,41.87
2017-05-30T09:30:41.912Z,42.85
2017-05-30T09:31:43.592Z,42.55
2017-05-30T09:32:45.278Z,42.16
2017-05-30T09:33:46.940Z,42.26
2017-05-30T09:34:48.582Z,42.46
2017-05-30T09:35:50.322Z,42.07
2017-05-30T09:36:52.060Z,41.58
2017-05-30T09:37:53.964Z,42.16
2017-05-30T09:38:55.716Z,41.87
2017-05-30T09:39:57.508Z,41.97
2017-05-30T09:40:59.276Z,41.87
2017-05-30T09:42:00.998Z,42.46
2017-05-30T09:43:02.722Z,42.07
2017-05-30T09:44:04.471Z,42.48
2017-05-30T09:45:06.255Z,42.46
2017-05-30T09:46:08.003Z,42.29
2017-05-30T09:47:09.726Z,41.87
2017-05-30T09:48:11.440Z,41.89
2017-05-30T09:49:13.151Z,41.87
2017-05-30T09:50:14.949Z,43.04
2017-05-30T09:51:17.273Z,42.36
2017-05-30T09:52:18.997Z,43.07
2017-05-30T09:53:20.642Z,42.16
2017-05-30T09:54:22.379Z,42.85
2017-05-30T09:55:24.095Z,41.87
2017-05-30T09:56:25.740Z,41.31
2017-05-30T09:57:27.473Z,41.41
2017-05-30T09:58:29.147Z,41.41
2017-05-30T09:59:30.796Z,41.19
2017-05-30T10:00:32.539Z,42.07
2017-05-30T10:01:34.170Z,41.70
2017-05-30T10:02:35.811Z,41.87
2017-05-30T10:03:37.478Z,42.75
2017-05-30T10:04:39.192Z,41.38
2017-05-30T10:05:40.940Z,42.77
2017-05-30T10:06:42.712Z,41.60
2017-05-30T10:07:44.450Z,42.48
2017-05-30T10:08:46.360Z,41.21
2017-05-30T10:09:48.117Z,40.82
2017-05-30T10:10:49.817Z,41.41
2017-05-30T10:11:51.495Z,42.07
2017-05-30T10:12:53.194Z,41.41
2017-05-30T10:13:54.904Z,42.09
2017-05-30T10:14:56.692Z,41.89
2017-05-30T10:15:58.396Z,41.28
2017-05-30T10:17:00.125Z,41.99
2017-05-30T10:18:01.814Z,41.70
2017-05-30T10:19:03.514Z,41.89
2017-05-30T10:20:05.236Z,41.38
2017-05-30T10:21:06.990Z,41.67
2017-05-30T10:22:08.711Z,42.16
2017-05-30T10:23:10.420Z,40.99
2017-05-30T10:24:12.125Z,41.50
2017-05-30T10:25:13.853Z,41.48
2017-05-30T10:26:15.520Z,41.48
2017-05-30T10:27:17.249Z,41.67
2017-05-30T10:28:18.940Z,42.16
2017-05-30T10:29:20.621Z,41.87
2017-05-30T10:30:22.313Z,41.19
2017-05-30T10:31:24.026Z,41.28
2017-05-30T10:32:25.690Z,40.89
2017-05-30T10:33:27.376Z,41.09
2017-05-30T10:34:29.020Z,41.28
2017-05-30T10:35:30.758Z,41.67
2017-05-30T10:36:32.468Z,41.19
2017-05-30T10:37:34.116Z,42.36
2017-05-30T10:38:36.579Z,42.16
2017-05-30T10:39:38.281Z,41.48
2017-05-30T10:40:39.970Z,41.67
2017-05-30T10:41:41.668Z,42.55
2017-05-30T10:42:43.331Z,43.43
2017-05-30T10:43:45.063Z,43.82
2017-05-30T10:44:46.754Z,42.09
2017-05-30T10:45:48.371Z,42.19
2017-05-30T10:46:50.100Z,42.26
2017-05-30T10:47:51.752Z,41.09
2017-05-30T10:48:53.428Z,40.89
2017-05-30T10:49:55.341Z,40.99
2017-05-30T10:50:57.249Z,41.87
2017-05-30T10:51:58.981Z,41.67
2017-05-30T10:53:00.625Z,42.46
2017-05-30T10:54:02.275Z,41.19
2017-05-30T10:55:03.917Z,41.28
2017-05-30T10:56:05.640Z,41.38
2017-05-30T10:57:07.419Z,42.16
2017-05-30T10:58:09.132Z,41.48
2017-05-30T10:59:10.762Z,40.89
2017-05-30T11:00:12.448Z,42.16
2017-05-30T11:01:14.081Z,41.58
2017-05-30T11:02:15.914Z,41.09
2017-05-30T11:03:17.599Z,42.36
2017-05-30T11:04:19.282Z,40.99
2017-05-30T11:05:21.787Z,40.70
2017-05-30T11:06:23.467Z,40.99
2017-05-30T11:07:25.199Z,41.09
2017-05-30T11:08:26.839Z,41.28
2017-05-30T11:09:28.473Z,41.87
2017-05-30T11:10:30.104Z,42.46
2017-05-30T11:11:31.787Z,41.19
2017-05-30T11:12:33.488Z,40.80
2017-05-30T11:13:35.193Z,42.75
2017-05-30T11:14:36.918Z,41.19
2017-05-30T11:15:38.651Z,41.58
2017-05-30T11:16:40.284Z,40.89
2017-05-30T11:17:41.959Z,40.99
2017-05-30T11:18:43.636Z,40.89
2017-05-30T11:19:45.302Z,42.36
2017-05-30T11:20:47.034Z,41.09
2017-05-30T11:21:48.668Z,42.16
2017-05-30T11:22:50.339Z,41.38
2017-05-30T11:23:52.067Z,41.97
2017-05-30T11:24:53.712Z,40.99
2017-05-30T11:25:55.329Z,41.38
2017-05-30T11:26:57.052Z,42.75
2017-05-30T11:27:58.730Z,41.19
2017-05-30T11:29:00.458Z,42.07
2017-05-30T11:30:02.116Z,41.87
2017-05-30T11:31:04.123Z,41.19
2017-05-30T11:32:05.783Z,40.89
2017-05-30T11:33:07.499Z,40.99
2017-05-30T11:34:09.273Z,40.89
2017-05-30T11:35:10.989Z,40.97
2017-05-30T11:36:12.642Z,41.67
2017-05-30T11:37:14.322Z,41.48
2017-05-30T11:38:16.016Z,41.58
2017-05-30T11:39:17.743Z,40.99
2017-05-30T11:40:19.436Z,41.28
2017-05-30T11:41:21.065Z,40.89
2017-05-30T11:42:23.019Z,41.56
2017-05-30T11:43:25.521Z,41.36
2017-05-30T11:44:27.286Z,41.67
2017-05-30T11:45:29.028Z,41.28
2017-05-30T11:46:30.732Z,41.85
2017-05-30T11:49:41.649Z,40.88
2017-05-30T11:50:43.329Z,40.88
2017-05-30T11:51:44.965Z,41.46
2017-05-30T11:52:46.653Z,41.56
2017-05-30T11:53:48.311Z,40.89
2017-05-30T11:54:49.972Z,41.09
2017-05-30T11:55:51.628Z,41.48
2017-05-30T11:56:53.266Z,41.17
2017-05-30T11:57:54.924Z,41.66
2017-05-30T11:58:56.575Z,41.17
2017-05-30T11:59:58.285Z,42.07
2017-05-30T12:01:00.074Z,42.16
2017-05-30T12:02:01.781Z,41.87
2017-05-30T12:03:03.442Z,41.56
2017-05-30T12:04:05.101Z,41.56
2017-05-30T12:05:06.803Z,41.56
2017-05-30T12:06:08.531Z,42.93
2017-05-30T12:07:10.197Z,42.73
2017-05-30T12:08:11.857Z,42.05
2017-05-30T12:09:13.507Z,42.34
2017-05-30T12:10:15.194Z,41.66
2017-05-30T12:11:16.958Z,42.14
2017-05-30T12:12:18.661Z,41.66
2017-05-30T12:13:20.314Z,41.95
2017-05-30T12:14:21.968Z,42.14
2017-05-30T12:15:23.651Z,42.34
2017-05-30T12:16:25.404Z,41.95
2017-05-30T12:17:28.013Z,41.36
2017-05-30T12:18:29.723Z,41.95
2017-05-30T12:19:31.371Z,42.05
2017-05-30T12:20:33.033Z,42.05
2017-05-30T12:21:34.687Z,42.05
2017-05-30T12:22:36.309Z,42.05
2017-05-30T12:23:38.150Z,41.85
2017-05-30T12:24:39.806Z,42.44
2017-05-30T12:25:41.520Z,42.05
2017-05-30T12:26:43.194Z,41.85
2017-05-30T12:27:44.891Z,42.05
2017-05-30T12:28:46.575Z,42.14
2017-05-30T12:29:48.355Z,41.85
2017-05-30T12:30:50.023Z,42.05
2017-05-30T12:31:51.706Z,42.14
2017-05-30T12:32:53.400Z,42.44
2017-05-30T12:33:55.085Z,41.85
2017-05-30T12:34:56.874Z,42.32
2017-05-30T12:35:58.660Z,41.93
2017-05-30T12:37:00.396Z,41.93
2017-05-30T12:38:02.189Z,41.85
2017-05-30T12:39:03.905Z,42.24
2017-05-30T12:40:05.670Z,42.14
2017-05-30T12:41:07.359Z,42.22
2017-05-30T12:42:09.112Z,42.05
2017-05-30T12:43:10.759Z,42.02
2017-05-30T12:44:12.526Z,42.12
2017-05-30T12:45:14.744Z,41.73
2017-05-30T12:46:16.458Z,41.75
2017-05-30T12:47:18.155Z,42.32
2017-05-30T12:48:19.953Z,42.22
2017-05-30T12:49:21.657Z,42.02
2017-05-30T12:50:23.319Z,42.12
2017-05-30T12:51:25.008Z,42.34
2017-05-30T12:52:26.775Z,42.41
2017-05-30T12:53:28.687Z,42.32
2017-05-30T12:54:30.456Z,42.32
2017-05-30T12:55:32.147Z,42.22
2017-05-30T12:56:33.819Z,42.51
2017-05-30T12:57:35.455Z,42.32
2017-05-30T12:58:37.202Z,42.61
2017-05-30T12:59:38.925Z,42.32
2017-05-30T13:00:40.574Z,42.32
2017-05-30T13:01:42.206Z,42.41
2017-05-30T13:02:43.922Z,42.41
2017-05-30T13:03:45.635Z,42.51
2017-05-30T13:04:47.357Z,42.51
2017-05-30T13:05:49.151Z,42.71
2017-05-30T13:06:50.898Z,42.41
2017-05-30T13:07:52.657Z,42.22
2017-05-30T13:08:54.356Z,42.32
2017-05-30T13:09:56.077Z,42.41
2017-05-30T13:10:57.828Z,42.22
2017-05-30T13:12:00.294Z,42.51
2017-05-30T13:13:01.957Z,42.32
2017-05-30T13:14:03.713Z,42.12
2017-05-30T13:15:06.142Z,42.32
2017-05-30T13:16:07.800Z,42.32
2017-05-30T13:17:09.557Z,42.32
2017-05-30T13:18:11.277Z,42.51
2017-05-30T13:19:12.971Z,42.32
2017-05-30T13:20:14.644Z,42.61
2017-05-30T13:21:16.310Z,42.51
2017-05-30T13:22:18.052Z,42.51
2017-05-30T13:23:19.727Z,42.32
2017-05-30T13:24:21.391Z,42.41
2017-05-30T13:25:23.057Z,42.32
2017-05-30T13:26:24.742Z,42.32
2017-05-30T13:27:26.456Z,42.41
2017-05-30T13:28:28.085Z,42.51
2017-05-30T13:29:30.271Z,42.71
2017-05-30T13:30:31.981Z,42.40